sensor_id;sensor_type;location;lat;lon;timestamp;P1;durP1;ratioP1;P2;durP2;ratioP2
12519;SDS011;6325;49.540;8.364;2023-05-18T00:01:21;2.40;;;1.88;;
12519;SDS011;6325;49.540;8.364;2023-05-18T00:03:48;3.35;;;1.92;;
12519;SDS011;6325;49.540;8.364;2023-05-18T00:06:18;2.85;;;1.75;;
12519;SDS011;6325;49.540;8.364;2023-05-18T00:08:46;3.10;;;2.00;;
12519;SDS011;6325;49.540;8.364;2023-05-18T00:11:15;3.30;;;1.90;;
12519;SDS011;6325;49.540;8.364;2023-05-18T00:13:42;3.28;;;1.95;;
12519;SDS011;6325;49.540;8.364;2023-05-18T00:16:09;2.60;;;1.70;;
12519;SDS011;6325;49.540;8.364;2023-05-18T00:18:39;2.80;;;1.63;;
12519;SDS011;6325;49.540;8.364;2023-05-18T00:21:06;1.90;;;1.65;;
12519;SDS011;6325;49.540;8.364;2023-05-18T00:23:34;3.65;;;2.10;;
12519;SDS011;6325;49.540;8.364;2023-05-18T00:26:03;2.45;;;1.70;;
12519;SDS011;6325;49.540;8.364;2023-05-18T00:28:32;2.55;;;1.65;;
12519;SDS011;6325;49.540;8.364;2023-05-18T00:30:59;2.58;;;1.77;;
12519;SDS011;6325;49.540;8.364;2023-05-18T00:33:27;2.83;;;1.80;;
12519;SDS011;6325;49.540;8.364;2023-05-18T00:35:54;2.85;;;2.08;;
12519;SDS011;6325;49.540;8.364;2023-05-18T00:38:21;3.45;;;2.10;;
12519;SDS011;6325;49.540;8.364;2023-05-18T00:40:48;3.35;;;2.10;;
12519;SDS011;6325;49.540;8.364;2023-05-18T00:43:16;2.55;;;1.95;;
12519;SDS011;6325;49.540;8.364;2023-05-18T00:45:44;2.75;;;2.03;;
12519;SDS011;6325;49.540;8.364;2023-05-18T00:48:11;2.40;;;2.17;;
12519;SDS011;6325;49.540;8.364;2023-05-18T00:50:38;3.35;;;2.05;;
12519;SDS011;6325;49.540;8.364;2023-05-18T00:53:06;2.50;;;1.90;;
12519;SDS011;6325;49.540;8.364;2023-05-18T00:55:34;2.83;;;2.00;;
12519;SDS011;6325;49.540;8.364;2023-05-18T00:58:01;2.72;;;2.03;;
12519;SDS011;6325;49.540;8.364;2023-05-18T01:00:29;3.00;;;1.90;;
12519;SDS011;6325;49.540;8.364;2023-05-18T01:02:59;2.00;;;1.80;;
12519;SDS011;6325;49.540;8.364;2023-05-18T01:05:26;2.03;;;1.75;;
12519;SDS011;6325;49.540;8.364;2023-05-18T01:07:53;2.37;;;1.83;;
12519;SDS011;6325;49.540;8.364;2023-05-18T01:10:20;2.30;;;2.08;;
12519;SDS011;6325;49.540;8.364;2023-05-18T01:12:48;2.20;;;2.00;;
12519;SDS011;6325;49.540;8.364;2023-05-18T01:15:17;2.15;;;1.88;;
12519;SDS011;6325;49.540;8.364;2023-05-18T01:17:53;2.65;;;2.00;;
12519;SDS011;6325;49.540;8.364;2023-05-18T01:20:32;2.55;;;1.90;;
12519;SDS011;6325;49.540;8.364;2023-05-18T01:25:49;3.13;;;1.98;;
12519;SDS011;6325;49.540;8.364;2023-05-18T01:28:31;3.75;;;2.20;;
12519;SDS011;6325;49.540;8.364;2023-05-18T01:30:58;2.50;;;1.73;;
12519;SDS011;6325;49.540;8.364;2023-05-18T01:33:25;2.90;;;1.83;;
12519;SDS011;6325;49.540;8.364;2023-05-18T01:35:52;2.70;;;2.10;;
12519;SDS011;6325;49.540;8.364;2023-05-18T01:38:20;3.53;;;2.20;;
12519;SDS011;6325;49.540;8.364;2023-05-18T01:40:51;2.17;;;1.85;;
12519;SDS011;6325;49.540;8.364;2023-05-18T01:43:26;3.28;;;2.40;;
12519;SDS011;6325;49.540;8.364;2023-05-18T01:45:57;2.47;;;2.10;;
12519;SDS011;6325;49.540;8.364;2023-05-18T01:48:29;3.42;;;1.95;;
12519;SDS011;6325;49.540;8.364;2023-05-18T01:51:02;2.80;;;2.03;;
12519;SDS011;6325;49.540;8.364;2023-05-18T01:53:31;3.35;;;2.00;;
12519;SDS011;6325;49.540;8.364;2023-05-18T01:56:02;3.05;;;2.08;;
12519;SDS011;6325;49.540;8.364;2023-05-18T01:58:33;3.58;;;2.10;;
12519;SDS011;6325;49.540;8.364;2023-05-18T02:01:01;3.27;;;2.20;;
12519;SDS011;6325;49.540;8.364;2023-05-18T02:03:30;2.55;;;1.98;;
12519;SDS011;6325;49.540;8.364;2023-05-18T02:05:56;3.47;;;2.30;;
12519;SDS011;6325;49.540;8.364;2023-05-18T02:08:23;3.28;;;2.30;;
12519;SDS011;6325;49.540;8.364;2023-05-18T02:10:52;2.93;;;2.00;;
12519;SDS011;6325;49.540;8.364;2023-05-18T02:13:18;3.33;;;2.03;;
12519;SDS011;6325;49.540;8.364;2023-05-18T02:15:46;3.00;;;2.08;;
12519;SDS011;6325;49.540;8.364;2023-05-18T02:18:13;2.20;;;2.00;;
12519;SDS011;6325;49.540;8.364;2023-05-18T02:20:40;2.67;;;2.10;;
12519;SDS011;6325;49.540;8.364;2023-05-18T02:23:07;3.60;;;2.28;;
12519;SDS011;6325;49.540;8.364;2023-05-18T02:25:33;2.90;;;2.20;;
12519;SDS011;6325;49.540;8.364;2023-05-18T02:28:01;2.40;;;2.10;;
12519;SDS011;6325;49.540;8.364;2023-05-18T02:30:27;2.60;;;2.17;;
12519;SDS011;6325;49.540;8.364;2023-05-18T02:32:58;2.40;;;2.00;;
12519;SDS011;6325;49.540;8.364;2023-05-18T02:35:25;2.88;;;2.20;;
12519;SDS011;6325;49.540;8.364;2023-05-18T02:37:51;2.67;;;2.10;;
12519;SDS011;6325;49.540;8.364;2023-05-18T02:40:19;2.40;;;2.20;;
12519;SDS011;6325;49.540;8.364;2023-05-18T02:42:46;3.85;;;2.30;;
12519;SDS011;6325;49.540;8.364;2023-05-18T02:45:13;2.97;;;2.30;;
12519;SDS011;6325;49.540;8.364;2023-05-18T02:47:40;3.35;;;2.33;;
12519;SDS011;6325;49.540;8.364;2023-05-18T02:50:09;2.85;;;1.98;;
12519;SDS011;6325;49.540;8.364;2023-05-18T02:52:36;2.80;;;2.20;;
12519;SDS011;6325;49.540;8.364;2023-05-18T02:55:04;3.17;;;2.30;;
12519;SDS011;6325;49.540;8.364;2023-05-18T02:57:31;2.90;;;2.38;;
12519;SDS011;6325;49.540;8.364;2023-05-18T02:59:58;2.75;;;2.15;;
12519;SDS011;6325;49.540;8.364;2023-05-18T03:02:24;2.83;;;1.90;;
12519;SDS011;6325;49.540;8.364;2023-05-18T03:04:51;2.92;;;2.30;;
12519;SDS011;6325;49.540;8.364;2023-05-18T03:07:22;3.05;;;2.33;;
12519;SDS011;6325;49.540;8.364;2023-05-18T03:09:51;2.20;;;2.00;;
12519;SDS011;6325;49.540;8.364;2023-05-18T03:12:18;3.40;;;2.33;;
12519;SDS011;6325;49.540;8.364;2023-05-18T03:14:45;3.17;;;2.17;;
12519;SDS011;6325;49.540;8.364;2023-05-18T03:17:11;3.10;;;2.20;;
12519;SDS011;6325;49.540;8.364;2023-05-18T03:19:38;3.25;;;2.40;;
12519;SDS011;6325;49.540;8.364;2023-05-18T03:22:05;2.88;;;2.22;;
12519;SDS011;6325;49.540;8.364;2023-05-18T03:24:33;3.30;;;2.20;;
12519;SDS011;6325;49.540;8.364;2023-05-18T03:27:04;3.40;;;2.47;;
12519;SDS011;6325;49.540;8.364;2023-05-18T03:29:31;4.13;;;2.53;;
12519;SDS011;6325;49.540;8.364;2023-05-18T03:31:58;2.95;;;2.17;;
12519;SDS011;6325;49.540;8.364;2023-05-18T03:34:25;2.70;;;2.10;;
12519;SDS011;6325;49.540;8.364;2023-05-18T03:36:51;2.58;;;2.13;;
12519;SDS011;6325;49.540;8.364;2023-05-18T03:39:18;2.85;;;2.22;;
12519;SDS011;6325;49.540;8.364;2023-05-18T03:41:47;2.90;;;2.15;;
12519;SDS011;6325;49.540;8.364;2023-05-18T03:44:13;3.28;;;2.40;;
12519;SDS011;6325;49.540;8.364;2023-05-18T03:46:40;3.40;;;2.47;;
12519;SDS011;6325;49.540;8.364;2023-05-18T03:49:07;4.70;;;2.50;;
12519;SDS011;6325;49.540;8.364;2023-05-18T03:51:34;2.65;;;2.30;;
12519;SDS011;6325;49.540;8.364;2023-05-18T03:54:00;2.95;;;2.35;;
12519;SDS011;6325;49.540;8.364;2023-05-18T03:56:27;2.75;;;2.10;;
12519;SDS011;6325;49.540;8.364;2023-05-18T03:58:56;2.28;;;2.10;;
12519;SDS011;6325;49.540;8.364;2023-05-18T04:01:24;3.15;;;2.40;;
12519;SDS011;6325;49.540;8.364;2023-05-18T04:03:54;3.70;;;2.58;;
12519;SDS011;6325;49.540;8.364;2023-05-18T04:06:21;2.83;;;2.30;;
12519;SDS011;6325;49.540;8.364;2023-05-18T04:08:50;2.40;;;2.20;;
12519;SDS011;6325;49.540;8.364;2023-05-18T04:11:16;3.45;;;2.28;;
12519;SDS011;6325;49.540;8.364;2023-05-18T04:13:43;3.03;;;2.58;;
12519;SDS011;6325;49.540;8.364;2023-05-18T04:16:11;3.90;;;2.40;;
12519;SDS011;6325;49.540;8.364;2023-05-18T04:18:39;3.17;;;2.38;;
12519;SDS011;6325;49.540;8.364;2023-05-18T04:21:06;2.78;;;2.13;;
12519;SDS011;6325;49.540;8.364;2023-05-18T04:23:33;2.53;;;2.20;;
12519;SDS011;6325;49.540;8.364;2023-05-18T04:26:03;3.22;;;2.10;;
12519;SDS011;6325;49.540;8.364;2023-05-18T04:28:30;3.13;;;2.10;;
12519;SDS011;6325;49.540;8.364;2023-05-18T04:30:57;3.85;;;2.30;;
12519;SDS011;6325;49.540;8.364;2023-05-18T04:33:27;2.38;;;2.17;;
12519;SDS011;6325;49.540;8.364;2023-05-18T04:35:54;3.35;;;2.33;;
12519;SDS011;6325;49.540;8.364;2023-05-18T04:38:22;3.05;;;2.13;;
12519;SDS011;6325;49.540;8.364;2023-05-18T04:40:49;2.85;;;2.00;;
12519;SDS011;6325;49.540;8.364;2023-05-18T04:43:17;2.85;;;2.30;;
12519;SDS011;6325;49.540;8.364;2023-05-18T04:45:46;2.70;;;2.05;;
12519;SDS011;6325;49.540;8.364;2023-05-18T04:48:15;3.70;;;2.60;;
12519;SDS011;6325;49.540;8.364;2023-05-18T04:50:44;3.15;;;2.10;;
12519;SDS011;6325;49.540;8.364;2023-05-18T04:53:11;2.95;;;2.20;;
12519;SDS011;6325;49.540;8.364;2023-05-18T04:55:37;3.55;;;2.22;;
12519;SDS011;6325;49.540;8.364;2023-05-18T04:58:06;2.53;;;2.17;;
12519;SDS011;6325;49.540;8.364;2023-05-18T05:00:34;3.75;;;2.38;;
12519;SDS011;6325;49.540;8.364;2023-05-18T05:03:01;3.58;;;2.33;;
12519;SDS011;6325;49.540;8.364;2023-05-18T05:05:28;3.28;;;2.55;;
12519;SDS011;6325;49.540;8.364;2023-05-18T05:07:56;4.00;;;2.53;;
12519;SDS011;6325;49.540;8.364;2023-05-18T05:10:23;2.58;;;2.00;;
12519;SDS011;6325;49.540;8.364;2023-05-18T05:12:52;4.25;;;2.30;;
12519;SDS011;6325;49.540;8.364;2023-05-18T05:15:19;2.63;;;2.33;;
12519;SDS011;6325;49.540;8.364;2023-05-18T05:17:46;2.45;;;2.15;;
12519;SDS011;6325;49.540;8.364;2023-05-18T05:20:13;4.55;;;2.70;;
12519;SDS011;6325;49.540;8.364;2023-05-18T05:22:41;3.63;;;2.38;;
12519;SDS011;6325;49.540;8.364;2023-05-18T05:25:09;3.55;;;2.40;;
12519;SDS011;6325;49.540;8.364;2023-05-18T05:27:36;2.15;;;1.98;;
12519;SDS011;6325;49.540;8.364;2023-05-18T05:30:03;2.73;;;1.90;;
12519;SDS011;6325;49.540;8.364;2023-05-18T05:32:31;3.75;;;2.50;;
12519;SDS011;6325;49.540;8.364;2023-05-18T05:34:58;3.40;;;2.47;;
12519;SDS011;6325;49.540;8.364;2023-05-18T05:37:25;3.05;;;2.10;;
12519;SDS011;6325;49.540;8.364;2023-05-18T05:39:52;2.92;;;2.00;;
12519;SDS011;6325;49.540;8.364;2023-05-18T05:42:20;2.15;;;1.95;;
12519;SDS011;6325;49.540;8.364;2023-05-18T05:44:47;2.95;;;2.10;;
12519;SDS011;6325;49.540;8.364;2023-05-18T05:47:14;3.35;;;2.10;;
12519;SDS011;6325;49.540;8.364;2023-05-18T05:49:40;2.83;;;2.00;;
12519;SDS011;6325;49.540;8.364;2023-05-18T05:52:07;3.10;;;2.20;;
12519;SDS011;6325;49.540;8.364;2023-05-18T05:54:34;2.78;;;2.00;;
12519;SDS011;6325;49.540;8.364;2023-05-18T05:57:01;3.22;;;2.10;;
12519;SDS011;6325;49.540;8.364;2023-05-18T05:59:29;2.50;;;2.07;;
12519;SDS011;6325;49.540;8.364;2023-05-18T06:01:56;2.45;;;2.00;;
12519;SDS011;6325;49.540;8.364;2023-05-18T06:04:23;2.58;;;2.00;;
12519;SDS011;6325;49.540;8.364;2023-05-18T06:06:49;2.83;;;2.10;;
12519;SDS011;6325;49.540;8.364;2023-05-18T06:09:16;2.70;;;2.17;;
12519;SDS011;6325;49.540;8.364;2023-05-18T06:11:43;2.23;;;1.93;;
12519;SDS011;6325;49.540;8.364;2023-05-18T06:14:10;2.70;;;2.10;;
12519;SDS011;6325;49.540;8.364;2023-05-18T06:16:38;2.30;;;2.10;;
12519;SDS011;6325;49.540;8.364;2023-05-18T06:19:05;3.03;;;2.20;;
12519;SDS011;6325;49.540;8.364;2023-05-18T06:21:31;3.15;;;2.10;;
12519;SDS011;6325;49.540;8.364;2023-05-18T06:23:58;3.55;;;2.42;;
12519;SDS011;6325;49.540;8.364;2023-05-18T06:26:25;2.70;;;2.03;;
12519;SDS011;6325;49.540;8.364;2023-05-18T06:28:52;3.17;;;2.13;;
12519;SDS011;6325;49.540;8.364;2023-05-18T06:31:19;2.65;;;2.10;;
12519;SDS011;6325;49.540;8.364;2023-05-18T06:33:47;3.90;;;2.25;;
12519;SDS011;6325;49.540;8.364;2023-05-18T06:36:14;3.60;;;2.08;;
12519;SDS011;6325;49.540;8.364;2023-05-18T06:38:41;3.33;;;2.08;;
12519;SDS011;6325;49.540;8.364;2023-05-18T06:41:08;3.60;;;2.10;;
12519;SDS011;6325;49.540;8.364;2023-05-18T06:43:34;3.25;;;2.08;;
12519;SDS011;6325;49.540;8.364;2023-05-18T06:46:01;3.00;;;2.00;;
12519;SDS011;6325;49.540;8.364;2023-05-18T06:48:28;3.15;;;2.17;;
12519;SDS011;6325;49.540;8.364;2023-05-18T06:50:56;3.20;;;2.25;;
12519;SDS011;6325;49.540;8.364;2023-05-18T06:53:23;2.90;;;2.08;;
12519;SDS011;6325;49.540;8.364;2023-05-18T06:55:50;2.80;;;2.00;;
12519;SDS011;6325;49.540;8.364;2023-05-18T06:58:17;3.13;;;2.10;;
12519;SDS011;6325;49.540;8.364;2023-05-18T07:00:43;2.35;;;1.85;;
12519;SDS011;6325;49.540;8.364;2023-05-18T07:03:10;2.30;;;1.90;;
12519;SDS011;6325;49.540;8.364;2023-05-18T07:05:37;2.65;;;2.10;;
12519;SDS011;6325;49.540;8.364;2023-05-18T07:08:05;3.20;;;2.00;;
12519;SDS011;6325;49.540;8.364;2023-05-18T07:10:32;2.55;;;1.90;;
12519;SDS011;6325;49.540;8.364;2023-05-18T07:12:59;3.03;;;2.20;;
12519;SDS011;6325;49.540;8.364;2023-05-18T07:15:26;2.83;;;1.90;;
12519;SDS011;6325;49.540;8.364;2023-05-18T07:17:53;2.38;;;1.95;;
12519;SDS011;6325;49.540;8.364;2023-05-18T07:20:19;3.45;;;2.00;;
12519;SDS011;6325;49.540;8.364;2023-05-18T07:22:46;2.55;;;2.00;;
12519;SDS011;6325;49.540;8.364;2023-05-18T07:25:14;2.65;;;1.92;;
12519;SDS011;6325;49.540;8.364;2023-05-18T07:27:42;3.38;;;1.80;;
12519;SDS011;6325;49.540;8.364;2023-05-18T07:30:09;3.15;;;2.03;;
12519;SDS011;6325;49.540;8.364;2023-05-18T07:32:36;1.90;;;1.70;;
12519;SDS011;6325;49.540;8.364;2023-05-18T07:35:03;2.85;;;1.80;;
12519;SDS011;6325;49.540;8.364;2023-05-18T07:37:30;3.05;;;2.10;;
12519;SDS011;6325;49.540;8.364;2023-05-18T07:39:57;2.95;;;1.95;;
12519;SDS011;6325;49.540;8.364;2023-05-18T07:42:25;2.88;;;1.90;;
12519;SDS011;6325;49.540;8.364;2023-05-18T07:44:52;2.72;;;1.80;;
12519;SDS011;6325;49.540;8.364;2023-05-18T07:47:18;3.15;;;1.85;;
12519;SDS011;6325;49.540;8.364;2023-05-18T07:49:46;2.40;;;1.83;;
12519;SDS011;6325;49.540;8.364;2023-05-18T07:52:12;3.67;;;1.90;;
12519;SDS011;6325;49.540;8.364;2023-05-18T07:54:39;2.22;;;1.80;;
12519;SDS011;6325;49.540;8.364;2023-05-18T07:57:06;4.07;;;2.13;;
12519;SDS011;6325;49.540;8.364;2023-05-18T07:59:34;2.77;;;1.90;;
12519;SDS011;6325;49.540;8.364;2023-05-18T08:02:01;3.13;;;1.90;;
12519;SDS011;6325;49.540;8.364;2023-05-18T08:04:28;2.83;;;1.98;;
12519;SDS011;6325;49.540;8.364;2023-05-18T08:06:54;2.33;;;1.70;;
12519;SDS011;6325;49.540;8.364;2023-05-18T08:09:24;3.63;;;2.00;;
12519;SDS011;6325;49.540;8.364;2023-05-18T08:11:51;4.65;;;1.88;;
12519;SDS011;6325;49.540;8.364;2023-05-18T08:14:18;3.33;;;1.92;;
12519;SDS011;6325;49.540;8.364;2023-05-18T08:16:46;3.17;;;1.90;;
12519;SDS011;6325;49.540;8.364;2023-05-18T08:19:13;3.65;;;2.10;;
12519;SDS011;6325;49.540;8.364;2023-05-18T08:21:40;2.78;;;1.80;;
12519;SDS011;6325;49.540;8.364;2023-05-18T08:24:08;3.57;;;2.00;;
12519;SDS011;6325;49.540;8.364;2023-05-18T08:26:34;2.75;;;1.73;;
12519;SDS011;6325;49.540;8.364;2023-05-18T08:29:01;2.95;;;1.90;;
12519;SDS011;6325;49.540;8.364;2023-05-18T08:31:33;3.58;;;2.05;;
12519;SDS011;6325;49.540;8.364;2023-05-18T08:34:02;2.27;;;1.70;;
12519;SDS011;6325;49.540;8.364;2023-05-18T08:36:29;3.78;;;1.92;;
12519;SDS011;6325;49.540;8.364;2023-05-18T08:38:57;2.72;;;1.77;;
12519;SDS011;6325;49.540;8.364;2023-05-18T08:41:25;2.22;;;1.70;;
12519;SDS011;6325;49.540;8.364;2023-05-18T08:43:58;3.65;;;2.05;;
12519;SDS011;6325;49.540;8.364;2023-05-18T08:46:27;4.68;;;2.20;;
12519;SDS011;6325;49.540;8.364;2023-05-18T08:48:58;3.13;;;1.83;;
12519;SDS011;6325;49.540;8.364;2023-05-18T08:51:28;2.95;;;1.80;;
12519;SDS011;6325;49.540;8.364;2023-05-18T08:53:58;2.60;;;1.90;;
12519;SDS011;6325;49.540;8.364;2023-05-18T08:56:26;2.87;;;2.00;;
12519;SDS011;6325;49.540;8.364;2023-05-18T08:58:57;2.25;;;1.63;;
12519;SDS011;6325;49.540;8.364;2023-05-18T09:01:24;2.65;;;1.60;;
12519;SDS011;6325;49.540;8.364;2023-05-18T09:03:53;3.13;;;1.88;;
12519;SDS011;6325;49.540;8.364;2023-05-18T09:06:22;2.63;;;1.80;;
12519;SDS011;6325;49.540;8.364;2023-05-18T09:08:51;3.22;;;1.90;;
12519;SDS011;6325;49.540;8.364;2023-05-18T09:11:20;2.23;;;1.73;;
12519;SDS011;6325;49.540;8.364;2023-05-18T09:13:48;3.00;;;1.95;;
12519;SDS011;6325;49.540;8.364;2023-05-18T09:16:15;2.75;;;1.70;;
12519;SDS011;6325;49.540;8.364;2023-05-18T09:18:42;2.10;;;1.70;;
12519;SDS011;6325;49.540;8.364;2023-05-18T09:21:09;3.00;;;1.90;;
12519;SDS011;6325;49.540;8.364;2023-05-18T09:23:38;3.72;;;1.95;;
12519;SDS011;6325;49.540;8.364;2023-05-18T09:26:07;3.10;;;1.83;;
12519;SDS011;6325;49.540;8.364;2023-05-18T09:28:36;3.00;;;1.83;;
12519;SDS011;6325;49.540;8.364;2023-05-18T09:31:04;2.83;;;1.90;;
12519;SDS011;6325;49.540;8.364;2023-05-18T09:33:33;2.40;;;1.70;;
12519;SDS011;6325;49.540;8.364;2023-05-18T09:36:03;2.83;;;1.92;;
12519;SDS011;6325;49.540;8.364;2023-05-18T09:38:34;3.05;;;1.70;;
12519;SDS011;6325;49.540;8.364;2023-05-18T09:41:02;3.03;;;1.80;;
12519;SDS011;6325;49.540;8.364;2023-05-18T09:43:30;3.30;;;1.90;;
12519;SDS011;6325;49.540;8.364;2023-05-18T09:46:04;4.20;;;1.90;;
12519;SDS011;6325;49.540;8.364;2023-05-18T09:48:33;2.78;;;1.70;;
12519;SDS011;6325;49.540;8.364;2023-05-18T09:51:00;2.70;;;2.00;;
12519;SDS011;6325;49.540;8.364;2023-05-18T09:53:27;2.67;;;1.73;;
12519;SDS011;6325;49.540;8.364;2023-05-18T09:55:54;2.53;;;1.88;;
12519;SDS011;6325;49.540;8.364;2023-05-18T09:58:21;2.67;;;1.75;;
12519;SDS011;6325;49.540;8.364;2023-05-18T10:00:49;3.15;;;1.85;;
12519;SDS011;6325;49.540;8.364;2023-05-18T10:03:18;3.28;;;1.90;;
12519;SDS011;6325;49.540;8.364;2023-05-18T10:05:46;2.70;;;1.83;;
12519;SDS011;6325;49.540;8.364;2023-05-18T10:08:13;2.55;;;1.55;;
12519;SDS011;6325;49.540;8.364;2023-05-18T10:10:44;1.70;;;1.45;;
12519;SDS011;6325;49.540;8.364;2023-05-18T10:13:14;3.72;;;2.13;;
12519;SDS011;6325;49.540;8.364;2023-05-18T10:15:45;2.30;;;1.60;;
12519;SDS011;6325;49.540;8.364;2023-05-18T10:18:16;3.17;;;1.90;;
12519;SDS011;6325;49.540;8.364;2023-05-18T10:20:46;2.65;;;1.75;;
12519;SDS011;6325;49.540;8.364;2023-05-18T10:23:14;2.78;;;1.67;;
12519;SDS011;6325;49.540;8.364;2023-05-18T10:25:43;2.95;;;1.80;;
12519;SDS011;6325;49.540;8.364;2023-05-18T10:28:11;2.65;;;1.80;;
12519;SDS011;6325;49.540;8.364;2023-05-18T10:30:44;2.23;;;1.50;;
12519;SDS011;6325;49.540;8.364;2023-05-18T10:33:11;3.35;;;2.00;;
12519;SDS011;6325;49.540;8.364;2023-05-18T10:35:42;2.60;;;1.85;;
12519;SDS011;6325;49.540;8.364;2023-05-18T10:38:13;3.38;;;2.15;;
12519;SDS011;6325;49.540;8.364;2023-05-18T10:40:44;3.00;;;2.00;;
12519;SDS011;6325;49.540;8.364;2023-05-18T10:43:14;2.70;;;1.80;;
12519;SDS011;6325;49.540;8.364;2023-05-18T10:45:43;2.72;;;1.83;;
12519;SDS011;6325;49.540;8.364;2023-05-18T10:48:12;3.35;;;1.85;;
12519;SDS011;6325;49.540;8.364;2023-05-18T10:50:41;3.50;;;1.80;;
12519;SDS011;6325;49.540;8.364;2023-05-18T10:53:09;3.08;;;1.75;;
12519;SDS011;6325;49.540;8.364;2023-05-18T10:55:38;2.40;;;1.60;;
12519;SDS011;6325;49.540;8.364;2023-05-18T10:58:06;2.35;;;1.70;;
12519;SDS011;6325;49.540;8.364;2023-05-18T11:00:38;2.95;;;1.90;;
12519;SDS011;6325;49.540;8.364;2023-05-18T11:03:06;2.70;;;2.03;;
12519;SDS011;6325;49.540;8.364;2023-05-18T11:05:37;3.10;;;1.90;;
12519;SDS011;6325;49.540;8.364;2023-05-18T11:08:06;3.03;;;1.80;;
12519;SDS011;6325;49.540;8.364;2023-05-18T11:10:34;3.25;;;2.00;;
12519;SDS011;6325;49.540;8.364;2023-05-18T11:13:05;3.00;;;2.00;;
12519;SDS011;6325;49.540;8.364;2023-05-18T11:18:33;3.08;;;1.83;;
12519;SDS011;6325;49.540;8.364;2023-05-18T11:21:19;2.58;;;1.65;;
12519;SDS011;6325;49.540;8.364;2023-05-18T11:24:18;2.17;;;1.70;;
12519;SDS011;6325;49.540;8.364;2023-05-18T11:26:55;3.20;;;2.00;;
12519;SDS011;6325;49.540;8.364;2023-05-18T11:29:28;2.17;;;1.70;;
12519;SDS011;6325;49.540;8.364;2023-05-18T11:31:56;2.80;;;1.87;;
12519;SDS011;6325;49.540;8.364;2023-05-18T11:34:33;1.92;;;1.65;;
12519;SDS011;6325;49.540;8.364;2023-05-18T11:37:01;3.10;;;1.98;;
12519;SDS011;6325;49.540;8.364;2023-05-18T11:39:30;2.90;;;1.80;;
12519;SDS011;6325;49.540;8.364;2023-05-18T11:41:57;2.78;;;1.70;;
12519;SDS011;6325;49.540;8.364;2023-05-18T11:44:26;2.75;;;2.00;;
12519;SDS011;6325;49.540;8.364;2023-05-18T11:46:54;2.60;;;1.83;;
12519;SDS011;6325;49.540;8.364;2023-05-18T11:49:25;3.43;;;1.90;;
12519;SDS011;6325;49.540;8.364;2023-05-18T11:51:53;3.35;;;1.98;;
12519;SDS011;6325;49.540;8.364;2023-05-18T11:54:22;2.88;;;2.20;;
12519;SDS011;6325;49.540;8.364;2023-05-18T11:56:51;2.92;;;2.10;;
12519;SDS011;6325;49.540;8.364;2023-05-18T11:59:28;2.80;;;2.28;;
12519;SDS011;6325;49.540;8.364;2023-05-18T12:01:58;2.15;;;1.58;;
12519;SDS011;6325;49.540;8.364;2023-05-18T12:04:26;2.72;;;1.70;;
12519;SDS011;6325;49.540;8.364;2023-05-18T12:06:55;2.65;;;1.70;;
12519;SDS011;6325;49.540;8.364;2023-05-18T12:09:23;2.30;;;1.70;;
12519;SDS011;6325;49.540;8.364;2023-05-18T12:11:51;3.40;;;1.90;;
12519;SDS011;6325;49.540;8.364;2023-05-18T12:14:18;3.22;;;1.70;;
12519;SDS011;6325;49.540;8.364;2023-05-18T12:16:46;2.15;;;1.60;;
12519;SDS011;6325;49.540;8.364;2023-05-18T12:19:14;2.90;;;1.70;;
12519;SDS011;6325;49.540;8.364;2023-05-18T12:21:41;3.33;;;1.65;;
12519;SDS011;6325;49.540;8.364;2023-05-18T12:24:08;2.78;;;1.65;;
12519;SDS011;6325;49.540;8.364;2023-05-18T12:26:34;3.03;;;1.73;;
12519;SDS011;6325;49.540;8.364;2023-05-18T12:29:03;3.50;;;1.83;;
12519;SDS011;6325;49.540;8.364;2023-05-18T12:31:30;2.70;;;1.92;;
12519;SDS011;6325;49.540;8.364;2023-05-18T12:33:59;2.13;;;1.52;;
12519;SDS011;6325;49.540;8.364;2023-05-18T12:36:27;2.80;;;1.90;;
12519;SDS011;6325;49.540;8.364;2023-05-18T12:38:54;2.35;;;1.48;;
12519;SDS011;6325;49.540;8.364;2023-05-18T12:41:21;2.58;;;1.75;;
12519;SDS011;6325;49.540;8.364;2023-05-18T12:43:50;1.98;;;1.50;;
12519;SDS011;6325;49.540;8.364;2023-05-18T12:46:20;2.70;;;1.70;;
12519;SDS011;6325;49.540;8.364;2023-05-18T12:48:54;2.83;;;1.70;;
12519;SDS011;6325;49.540;8.364;2023-05-18T12:51:22;2.03;;;1.50;;
12519;SDS011;6325;49.540;8.364;2023-05-18T12:53:54;3.40;;;2.60;;
12519;SDS011;6325;49.540;8.364;2023-05-18T12:56:21;3.15;;;1.73;;
12519;SDS011;6325;49.540;8.364;2023-05-18T12:58:53;2.70;;;1.77;;
12519;SDS011;6325;49.540;8.364;2023-05-18T13:01:25;2.17;;;1.50;;
12519;SDS011;6325;49.540;8.364;2023-05-18T13:03:56;3.25;;;1.92;;
12519;SDS011;6325;49.540;8.364;2023-05-18T13:06:23;3.03;;;1.88;;
12519;SDS011;6325;49.540;8.364;2023-05-18T13:08:54;2.42;;;1.60;;
12519;SDS011;6325;49.540;8.364;2023-05-18T13:11:24;3.40;;;1.83;;
12519;SDS011;6325;49.540;8.364;2023-05-18T13:13:58;2.37;;;1.60;;
12519;SDS011;6325;49.540;8.364;2023-05-18T13:16:27;2.50;;;1.60;;
12519;SDS011;6325;49.540;8.364;2023-05-18T13:18:55;3.27;;;1.77;;
12519;SDS011;6325;49.540;8.364;2023-05-18T13:21:23;2.95;;;1.40;;
12519;SDS011;6325;49.540;8.364;2023-05-18T13:23:50;2.58;;;1.70;;
12519;SDS011;6325;49.540;8.364;2023-05-18T13:26:17;2.67;;;1.67;;
12519;SDS011;6325;49.540;8.364;2023-05-18T13:28:46;3.45;;;1.73;;
12519;SDS011;6325;49.540;8.364;2023-05-18T13:31:15;2.07;;;1.40;;
12519;SDS011;6325;49.540;8.364;2023-05-18T13:33:43;3.25;;;1.63;;
12519;SDS011;6325;49.540;8.364;2023-05-18T13:36:10;3.47;;;1.63;;
12519;SDS011;6325;49.540;8.364;2023-05-18T13:38:37;2.25;;;1.70;;
12519;SDS011;6325;49.540;8.364;2023-05-18T13:41:04;2.90;;;1.83;;
12519;SDS011;6325;49.540;8.364;2023-05-18T13:43:31;2.47;;;2.10;;
12519;SDS011;6325;49.540;8.364;2023-05-18T13:45:58;2.38;;;1.70;;
12519;SDS011;6325;49.540;8.364;2023-05-18T13:48:24;3.08;;;1.80;;
12519;SDS011;6325;49.540;8.364;2023-05-18T13:50:54;1.65;;;1.45;;
12519;SDS011;6325;49.540;8.364;2023-05-18T13:53:21;1.67;;;1.42;;
12519;SDS011;6325;49.540;8.364;2023-05-18T13:55:48;2.95;;;1.70;;
12519;SDS011;6325;49.540;8.364;2023-05-18T13:58:15;2.50;;;1.60;;
12519;SDS011;6325;49.540;8.364;2023-05-18T14:00:43;2.33;;;1.50;;
12519;SDS011;6325;49.540;8.364;2023-05-18T14:03:10;2.30;;;1.52;;
12519;SDS011;6325;49.540;8.364;2023-05-18T14:05:38;1.95;;;1.50;;
12519;SDS011;6325;49.540;8.364;2023-05-18T14:08:07;2.33;;;1.40;;
12519;SDS011;6325;49.540;8.364;2023-05-18T14:10:34;2.47;;;1.70;;
12519;SDS011;6325;49.540;8.364;2023-05-18T14:13:01;2.67;;;1.60;;
12519;SDS011;6325;49.540;8.364;2023-05-18T14:15:28;2.08;;;1.70;;
12519;SDS011;6325;49.540;8.364;2023-05-18T14:17:54;2.75;;;1.80;;
12519;SDS011;6325;49.540;8.364;2023-05-18T14:20:21;2.70;;;1.60;;
12519;SDS011;6325;49.540;8.364;2023-05-18T14:22:48;6.72;;;1.98;;
12519;SDS011;6325;49.540;8.364;2023-05-18T14:25:16;2.30;;;1.67;;
12519;SDS011;6325;49.540;8.364;2023-05-18T14:27:43;2.55;;;1.67;;
12519;SDS011;6325;49.540;8.364;2023-05-18T14:30:10;3.05;;;1.50;;
12519;SDS011;6325;49.540;8.364;2023-05-18T14:32:37;1.83;;;1.50;;
12519;SDS011;6325;49.540;8.364;2023-05-18T14:35:04;1.98;;;1.50;;
12519;SDS011;6325;49.540;8.364;2023-05-18T14:37:32;2.67;;;1.60;;
12519;SDS011;6325;49.540;8.364;2023-05-18T14:39:58;2.53;;;1.50;;
12519;SDS011;6325;49.540;8.364;2023-05-18T14:42:27;2.85;;;1.67;;
12519;SDS011;6325;49.540;8.364;2023-05-18T14:44:53;2.33;;;1.60;;
12519;SDS011;6325;49.540;8.364;2023-05-18T14:47:20;2.10;;;1.50;;
12519;SDS011;6325;49.540;8.364;2023-05-18T14:49:47;2.88;;;1.60;;
12519;SDS011;6325;49.540;8.364;2023-05-18T14:52:14;2.60;;;1.60;;
12519;SDS011;6325;49.540;8.364;2023-05-18T14:54:40;1.73;;;1.48;;
12519;SDS011;6325;49.540;8.364;2023-05-18T14:57:07;3.13;;;1.67;;
12519;SDS011;6325;49.540;8.364;2023-05-18T14:59:36;3.40;;;1.85;;
12519;SDS011;6325;49.540;8.364;2023-05-18T15:02:03;3.78;;;1.52;;
12519;SDS011;6325;49.540;8.364;2023-05-18T15:04:31;1.88;;;1.60;;
12519;SDS011;6325;49.540;8.364;2023-05-18T15:06:58;2.20;;;1.77;;
12519;SDS011;6325;49.540;8.364;2023-05-18T15:09:25;2.60;;;1.58;;
12519;SDS011;6325;49.540;8.364;2023-05-18T15:11:52;2.23;;;1.57;;